Latest Weather Observations for Noarlunga

IDS60901

Issued at 10:41 pm CST Saturday 19 August 2017 (issued every 10 minutes, with the page automatically refreshed every 10 minutes)

About weather observations | Map of Adelaide area stations | Latest observations for Adelaide area | Other Formats
Station Details ID: 023885 Name: NOARLUNGA Lat: -35.16 Lon: 138.51 Height: 55.0 m
Data from the previous 72 hours. | See also: Recent months at Noarlunga
Date/Time
CST
Temp
°C
App
Temp
°C
Dew
Point
°C
Rel
Hum
%
Delta-T
°C
Wind Press
QNH
hPa
Press
MSL
hPa
Rain since
9am
mm
Dir  Spd
km/h
Gust
km/h
Spd
kts
Gust
kts
19/10:30pm 8.6 4.6 2.8 67 2.5 E 13 17 7 9 - - 0.0
19/10:00pm 9.0 5.0 3.0 66 2.6 E 13 20 7 11 - - 0.0
19/09:30pm 8.7 4.7 2.9 67 2.5 E 13 19 7 10 - - 0.0
19/09:00pm 8.6 4.7 3.2 69 2.3 E 13 19 7 10 - - 0.0
19/08:30pm 8.6 5.5 3.4 70 2.2 E 9 13 5 7 - - 0.0
19/08:00pm 8.6 5.5 3.8 72 2.1 E 9 13 5 7 - - 0.0
19/07:30pm 8.7 5.7 3.9 72 2.1 ESE 9 17 5 9 - - 0.0
19/07:00pm 9.3 6.3 4.1 70 2.3 ESE 9 11 5 6 - - 0.0
19/06:30pm 9.8 7.6 5.2 73 2.1 SSW 6 7 3 4 - - 0.0
19/06:00pm 11.1 8.9 5.4 68 2.6 SW 6 7 3 4 - - 0.0
19/05:30pm 12.2 9.9 5.6 64 3.1 SW 7 11 4 6 - - 0.0
19/05:00pm 12.9 10.2 5.6 61 3.4 SW 9 15 5 8 - - 0.0
19/04:30pm 13.1 10.3 5.3 59 3.6 WSW 9 15 5 8 - - 0.0
19/04:00pm 13.5 10.4 5.4 58 3.8 W 11 17 6 9 - - 0.0
19/03:30pm 13.1 10.9 6.0 62 3.4 W 7 13 4 7 - - 0.0
19/03:00pm 13.2 10.1 5.6 60 3.6 W 11 17 6 9 - - 0.0
19/02:30pm 14.3 11.4 6.4 59 3.8 WSW 11 15 6 8 - - 0.0
19/02:00pm 13.3 10.8 4.5 55 4.0 SSE 7 9 4 5 - - 0.0
19/01:30pm 13.5 11.4 4.1 53 4.3 SW 4 7 2 4 - - 0.0
19/01:00pm 14.1 11.2 4.9 54 4.3 SSE 9 13 5 7 - - 0.0
19/12:30pm 13.9 11.2 5.8 58 3.8 SSW 9 19 5 10 - - 0.0
19/12:00pm 13.1 9.8 4.3 55 4.0 WSW 11 17 6 9 - - 0.0
19/11:30am 13.0 10.1 4.9 58 3.7 W 9 13 5 7 - - 0.0
19/11:00am 12.7 9.8 4.7 58 3.7 W 9 13 5 7 - - 0.0
19/10:30am 12.4 9.9 4.6 59 3.6 SW 7 13 4 7 - - 0.0
19/10:00am 12.0 9.1 4.5 60 3.4 SW 9 15 5 8 - - 0.0
19/09:30am 11.6 9.4 3.6 58 3.6 S 4 7 2 4 - - 0.0
19/09:00am 11.3 9.1 5.4 67 2.7 ESE 6 9 3 5 - - 0.2
19/08:30am 10.3 8.5 5.5 72 2.2 ESE 4 6 2 3 - - 0.2
19/08:00am 9.2 7.3 5.0 75 1.9 E 4 6 2 3 - - 0.2
19/07:30am 7.5 5.4 4.1 79 1.5 E 4 6 2 3 - - 0.2
19/07:00am 6.8 4.3 3.6 80 1.4 E 6 9 3 5 - - 0.2
19/06:30am 6.8 4.1 3.8 81 1.3 E 7 9 4 5 - - 0.2
19/06:00am 6.4 3.9 3.6 82 1.2 SE 6 7 3 4 - - 0.2
19/05:30am 6.2 3.7 3.7 84 1.1 SSW 6 6 3 3 - - 0.2
19/05:00am 6.0 3.8 3.3 83 1.1 SSW 4 6 2 3 - - 0.2
19/04:30am 6.0 3.8 3.2 82 1.2 SSW 4 6 2 3 - - 0.2
19/04:00am 6.8 4.6 3.6 80 1.4 SSW 4 6 2 3 - - 0.2
19/03:30am 7.4 5.3 3.8 78 1.5 SSW 4 6 2 3 - - 0.2
19/03:00am 7.5 5.4 4.1 79 1.5 SSW 4 6 2 3 - - 0.2
19/02:30am 7.7 5.6 4.1 78 1.6 SSW 4 6 2 3 - - 0.2
19/02:00am 7.7 5.6 4.1 78 1.6 SSW 4 6 2 3 - - 0.2
19/01:30am 8.1 6.0 4.1 76 1.7 SSW 4 6 2 3 - - 0.2
19/01:00am 8.7 6.7 4.5 75 1.9 SSW 4 6 2 3 - - 0.2
19/12:30am 9.5 7.1 5.1 74 2.0 S 7 15 4 8 - - 0.2
19/12:00am 9.3 6.9 5.3 76 1.8 S 7 9 4 5 - - 0.2
 
Date/Time
CST
Temp
°C
App
Temp
°C
Dew
Point
°C
Rel
Hum
%
Delta-T
°C
Wind Press
QNH
hPa
Press
MSL
hPa
Rain since
9am
mm
Dir  Spd
km/h
Gust
km/h
Spd
kts
Gust
kts
18/11:30pm 10.5 7.7 5.3 70 2.4 SSW 9 24 5 13 - - 0.2
18/11:00pm 10.8 7.5 4.7 66 2.8 SW 11 19 6 10 - - 0.2
18/10:30pm 10.9 6.8 4.6 65 2.8 SW 15 22 8 12 - - 0.2
18/10:00pm 11.3 6.5 4.5 63 3.1 SW 19 28 10 15 - - 0.2
18/09:30pm 11.1 7.0 4.3 63 3.1 SW 15 24 8 13 - - 0.2
18/09:00pm 10.9 6.5 4.6 65 2.8 SW 17 32 9 17 - - 0.2
18/08:30pm 11.4 6.3 4.2 61 3.2 SW 20 28 11 15 - - 0.2
18/08:00pm 11.3 6.1 3.3 58 3.5 WSW 20 33 11 18 - - 0.2
18/07:30pm 11.4 7.0 4.6 63 3.1 WSW 17 26 9 14 - - 0.2
18/07:00pm 11.2 8.0 5.1 66 2.8 SW 11 20 6 11 - - 0.2
18/06:30pm 11.3 7.2 4.3 62 3.2 SW 15 28 8 15 - - 0.2
18/06:00pm 11.3 7.9 3.8 60 3.3 SW 11 20 6 11 - - 0.2
18/05:30pm 11.8 6.5 5.2 64 3.0 SW 22 35 12 19 - - 0.2
18/05:00pm 11.9 7.9 4.9 62 3.2 SW 15 24 8 13 - - 0.2
18/04:30pm 12.3 8.0 5.2 62 3.3 SW 17 24 9 13 - - 0.2
18/04:00pm 12.5 8.1 4.7 59 3.6 SW 17 26 9 14 - - 0.2
18/03:30pm 13.0 8.2 4.7 57 3.8 WSW 19 26 10 14 - - 0.2
18/03:00pm 13.1 8.0 4.3 55 4.0 WSW 20 33 11 18 - - 0.2
18/02:30pm 13.5 8.1 4.4 54 4.2 WSW 22 35 12 19 - - 0.2
18/02:00pm 13.0 9.3 6.4 64 3.2 W 15 26 8 14 - - 0.2
18/01:30pm 11.9 6.4 5.8 66 2.9 WSW 24 39 13 21 - - 0.2
18/01:00pm 13.2 6.8 3.3 51 4.4 WSW 26 37 14 20 - - 0.2
18/12:30pm 12.6 6.6 3.6 54 4.0 WSW 24 35 13 19 - - 0.2
18/12:00pm 9.8 4.2 5.4 74 2.0 SW 24 48 13 26 - - 0.0
18/11:30am 12.9 8.0 4.3 56 3.9 WSW 19 35 10 19 - - 0.0
18/11:00am 12.4 6.2 4.1 57 3.8 WSW 26 39 14 21 - - 0.0
18/10:30am 12.4 6.3 4.6 59 3.6 WSW 26 39 14 21 - - 0.0
18/10:00am 12.3 7.3 4.5 59 3.6 WSW 20 37 11 20 - - 0.0
18/09:30am 12.1 7.1 4.6 60 3.4 WSW 20 41 11 22 - - 0.0
18/09:00am 11.7 5.4 3.7 58 3.6 WSW 26 41 14 22 - - 8.4
18/08:30am 11.3 4.7 4.1 61 3.2 WSW 28 39 15 21 - - 8.4
18/08:00am 10.8 4.9 3.8 62 3.1 WSW 24 39 13 21 - - 8.4
18/07:30am 10.4 4.5 3.9 64 2.9 SW 24 33 13 18 - - 8.2
18/07:00am 10.3 4.0 3.6 63 2.9 WSW 26 43 14 23 - - 8.2
18/06:30am 10.2 4.2 3.5 63 2.9 WSW 24 35 13 19 - - 8.2
18/06:10am 10.7 3.5 3.0 59 3.3 WSW 30 50 16 27 - - 8.2
18/06:00am 10.6 3.8 3.2 60 3.2 WSW 28 41 15 22 - - 8.2
18/05:30am 10.2 4.7 4.1 66 2.7 WSW 22 35 12 19 - - 8.2
18/05:00am 9.7 3.6 4.7 71 2.2 W 26 41 14 22 - - 8.2
18/04:48am 10.9 4.3 4.1 63 3.0 WSW 28 52 15 28 - - 8.2
18/04:30am 10.7 4.5 4.2 64 2.9 WSW 26 46 14 25 - - 8.2
18/04:00am 10.6 3.9 3.9 63 3.0 WSW 28 48 15 26 - - 8.2
18/03:43am 10.6 3.9 3.9 63 3.0 WSW 28 48 15 26 - - 8.2
18/03:30am 10.5 3.0 3.5 62 3.1 WSW 32 48 17 26 - - 8.2
18/03:10am 10.5 3.9 4.0 64 2.9 W 28 46 15 25 - - 8.2
18/03:00am 10.7 4.1 4.4 65 2.8 W 28 44 15 24 - - 8.2
18/02:38am 10.4 3.7 3.9 64 2.9 WSW 28 46 15 25 - - 8.2
18/02:30am 10.4 3.7 3.7 63 3.0 WSW 28 43 15 23 - - 8.2
18/02:04am 10.4 3.8 4.3 66 2.7 W 28 50 15 27 - - 8.2
18/02:00am 10.3 4.7 5.5 72 2.2 W 24 37 13 20 - - 8.2
18/01:30am 10.2 4.5 5.0 70 2.4 W 24 43 13 23 - - 8.2
18/01:00am 9.5 4.4 5.9 78 1.7 W 22 39 12 21 - - 8.2
18/12:30am 8.9 1.6 5.6 80 1.5 WSW 33 57 18 31 - - 7.8
18/12:00am 9.2 2.8 5.2 76 1.8 WSW 28 50 15 27 - - 7.0
 
Date/Time
CST
Temp
°C
App
Temp
°C
Dew
Point
°C
Rel
Hum
%
Delta-T
°C
Wind Press
QNH
hPa
Press
MSL
hPa
Rain since
9am
mm
Dir  Spd
km/h
Gust
km/h
Spd
kts
Gust
kts
17/11:41pm 9.3 1.2 5.1 75 1.9 WSW 37 74 20 40 - - 5.8
17/11:31pm 11.4 5.0 5.1 65 2.9 W 28 54 15 29 - - 3.8
17/11:30pm 11.4 5.0 5.1 65 2.9 W 28 46 15 25 - - 3.8
17/11:01pm 10.5 4.2 5.7 72 2.2 WNW 28 48 15 26 - - 3.8
17/11:00pm 10.4 4.5 5.6 72 2.2 WNW 26 44 14 24 - - 3.8
17/10:32pm 10.7 4.3 5.0 68 2.6 W 28 46 15 25 - - 3.6
17/10:30pm 10.7 4.2 4.8 67 2.7 W 28 46 15 25 - - 3.6
17/10:23pm 10.6 4.2 5.2 69 2.5 W 28 48 15 26 - - 3.6
17/10:00pm 10.6 4.7 6.0 73 2.1 W 26 37 14 20 - - 3.6
17/09:30pm 10.3 4.0 5.9 74 2.0 WNW 28 44 15 24 - - 3.4
17/09:07pm 9.5 2.9 4.3 70 2.3 WNW 28 56 15 30 - - 3.4
17/09:00pm 10.5 5.1 6.5 76 1.9 WNW 24 39 13 21 - - 3.4
17/08:30pm 10.0 3.8 6.0 76 1.9 W 28 48 15 26 - - 3.4
17/08:14pm 8.7 0.0 4.3 74 1.9 W 39 89 21 48 - - 3.4
17/08:09pm 7.8 -1.9 3.1 72 2.0 W 43 89 23 48 - - 3.4
17/08:06pm 7.9 -1.1 2.2 67 2.4 W 39 89 21 48 - - 3.0
17/08:05pm 10.6 2.7 4.3 65 2.8 W 35 80 19 43 - - 2.6
17/08:00pm 12.0 4.7 4.5 60 3.4 W 32 50 17 27 - - 2.2
17/07:34pm 11.6 5.2 5.3 65 2.9 W 28 48 15 26 - - 2.2
17/07:30pm 11.4 5.1 5.7 68 2.6 W 28 43 15 23 - - 2.2
17/07:00pm 10.6 3.5 5.6 71 2.3 W 32 56 17 30 - - 2.2
17/06:30pm 12.1 4.9 5.7 65 3.0 WNW 33 54 18 29 - - 2.2
17/06:00pm 12.2 5.1 5.6 64 3.1 WNW 32 57 17 31 - - 2.2
17/05:31pm 12.3 4.9 5.2 62 3.3 WNW 33 61 18 33 - - 2.2
17/05:30pm 12.3 5.0 5.5 63 3.2 WNW 33 52 18 28 - - 2.2
17/05:06pm 12.4 5.8 6.0 65 3.0 WNW 30 50 16 27 - - 2.2
17/05:00pm 12.7 5.4 5.6 62 3.3 WNW 33 50 18 27 - - 2.2
17/04:42pm 12.1 5.6 6.6 69 2.6 WNW 30 52 16 28 - - 2.2
17/04:30pm 12.3 6.2 6.8 69 2.6 WNW 28 44 15 24 - - 2.2
17/04:00pm 11.9 5.0 6.6 70 2.5 WNW 32 50 17 27 - - 2.2
17/03:49pm 11.7 5.6 6.6 71 2.4 WNW 28 56 15 30 - - 2.2
17/03:30pm 10.9 5.0 7.6 80 1.6 WNW 28 44 15 24 - - 2.0
17/03:10pm 10.8 4.0 7.1 78 1.8 WNW 32 80 17 43 - - 1.8
17/03:00pm 11.9 6.3 7.0 72 2.4 WNW 26 46 14 25 - - 0.6
17/02:30pm 12.1 6.2 7.6 74 2.2 WNW 28 44 15 24 - - 0.6
17/02:00pm 10.7 6.2 8.5 86 1.1 WNW 22 35 12 19 - - 0.4
17/01:35pm 10.2 2.0 6.5 78 1.7 WNW 39 61 21 33 - - 0.0
17/01:33pm 11.3 3.4 6.4 72 2.3 WNW 37 61 20 33 - - 0.0
17/01:31pm 13.4 6.5 7.2 66 3.0 WNW 33 52 18 28 - - 0.0
17/01:30pm 13.5 6.1 6.8 64 3.2 NW 35 52 19 28 - - 0.0
17/01:00pm 14.6 7.3 7.2 61 3.6 NW 35 56 19 30 - - 0.0
17/12:33pm 14.9 7.7 7.7 62 3.6 NW 35 56 19 30 - - 0.0
17/12:30pm 14.6 7.0 7.4 62 3.6 NW 37 56 20 30 - - 0.0
17/12:02pm 14.0 6.8 7.5 65 3.2 NW 35 54 19 29 - - 0.0
17/12:00pm 14.1 7.3 7.6 65 3.2 NW 33 52 18 28 - - 0.0
17/11:32am 13.9 7.6 7.2 64 3.3 NW 30 48 16 26 - - 0.0
17/11:30am 13.9 8.0 7.4 65 3.2 NW 28 43 15 23 - - 0.0
17/11:00am 13.9 7.2 7.4 65 3.2 NW 32 54 17 29 - - 0.0
17/10:30am 13.9 7.3 7.9 67 3.0 NW 32 44 17 24 - - 0.0
17/10:00am 13.0 7.7 8.3 73 2.3 NW 26 44 14 24 - - 0.0
17/09:46am 13.1 7.3 8.0 71 2.5 NW 28 46 15 25 - - 0.0
17/09:30am 11.4 7.1 7.1 75 2.1 NNW 19 28 10 15 - - 0.0
17/09:00am 11.3 3.9 5.2 66 2.8 NW 33 54 18 29 - - 2.6
17/08:50am 12.4 6.7 8.3 76 2.0 NW 28 46 15 25 - - 2.6
17/08:30am 12.3 7.4 8.4 77 1.9 NW 24 37 13 20 - - 2.6
17/08:00am 12.1 7.6 8.4 78 1.8 NW 22 33 12 18 - - 2.6
17/07:30am 12.1 7.2 8.4 78 1.8 NW 24 35 13 19 - - 2.6
17/07:00am 12.2 7.4 8.9 80 1.7 NW 24 37 13 20 - - 2.6
17/06:30am 11.8 7.7 8.5 80 1.6 WNW 20 33 11 18 - - 2.6
17/06:00am 11.9 7.8 8.7 81 1.6 WNW 20 30 11 16 - - 2.6
17/05:30am 11.7 7.6 8.7 82 1.5 WNW 20 30 11 16 - - 2.6
17/05:00am 11.1 6.3 8.7 85 1.2 NW 24 35 13 19 - - 2.4
17/04:31am 11.3 4.9 8.7 84 1.3 WNW 32 52 17 28 - - 2.0
17/04:30am 11.4 4.8 8.6 83 1.4 WNW 33 52 18 28 - - 2.0
17/04:12am 11.8 5.5 8.8 82 1.5 NW 32 50 17 27 - - 1.8
17/04:00am 11.6 5.6 8.6 82 1.5 NW 30 46 16 25 - - 1.8
17/03:43am 12.2 6.7 9.2 82 1.5 NW 28 52 15 28 - - 1.8
17/03:30am 12.0 7.2 9.0 82 1.5 NW 24 39 13 21 - - 1.8
17/03:00am 11.5 5.2 9.1 85 1.2 NW 32 50 17 27 - - 1.8
17/02:54am 11.7 6.3 9.4 86 1.2 NW 28 46 15 25 - - 1.8
17/02:30am 12.1 6.1 8.8 80 1.6 NW 30 44 16 24 - - 1.8
17/02:00am 12.5 6.0 8.2 75 2.1 NW 32 50 17 27 - - 1.8
17/01:30am 12.5 6.1 8.6 77 1.9 NW 32 57 17 31 - - 1.8
17/01:12am 12.5 6.5 8.8 78 1.9 NW 30 50 16 27 - - 1.8
17/01:00am 12.3 7.5 9.0 80 1.7 NNW 24 39 13 21 - - 1.8
17/12:30am 12.4 6.9 9.1 80 1.7 NNW 28 39 15 21 - - 1.8
17/12:00am 12.4 7.7 9.1 80 1.7 NW 24 35 13 19 - - 1.8
 
Date/Time
CST
Temp
°C
App
Temp
°C
Dew
Point
°C
Rel
Hum
%
Delta-T
°C
Wind Press
QNH
hPa
Press
MSL
hPa
Rain since
9am
mm
Dir  Spd
km/h
Gust
km/h
Spd
kts
Gust
kts
16/11:30pm 12.3 8.0 9.3 82 1.5 NW 22 33 12 18 - - 1.8
16/11:00pm 11.8 7.8 9.2 84 1.3 NW 20 32 11 17 - - 1.8

Latest Capital City Observations: Canberra | Sydney | Melbourne | Brisbane | Adelaide | Perth | Hobart | Darwin

Other Formats:

Comma delimited format used in spreadsheet applications
http://www.bom.gov.au/fwo/IDS60901/IDS60901.94808.axf

JavaScript Object Notation format (JSON) in row-major order
http://www.bom.gov.au/fwo/IDS60901/IDS60901.94808.json